createdAt,value
2024-05-09T00:02:08.426Z,12.59
2024-05-09T00:04:40.100Z,12.53
2024-05-09T00:07:10.926Z,12.49
2024-05-09T00:09:41.075Z,12.47
2024-05-09T00:12:14.203Z,12.51
2024-05-09T00:14:44.452Z,12.51
2024-05-09T00:17:14.764Z,12.51
2024-05-09T00:19:47.259Z,12.41
2024-05-09T00:22:17.397Z,12.45
2024-05-09T00:24:50.514Z,12.46
2024-05-09T00:27:23.743Z,12.47
2024-05-09T00:29:54.088Z,12.49
2024-05-09T00:32:24.635Z,12.51
2024-05-09T00:34:54.725Z,12.51
2024-05-09T00:37:27.772Z,12.40
2024-05-09T00:39:57.696Z,12.32
2024-05-09T00:42:30.574Z,12.39
2024-05-09T00:45:00.862Z,12.30
2024-05-09T00:47:34.118Z,12.38
2024-05-09T00:50:09.774Z,12.37
2024-05-09T00:52:43.169Z,12.33
2024-05-09T00:55:13.133Z,12.39
2024-05-09T00:57:46.341Z,12.43
2024-05-09T01:00:26.111Z,12.45
2024-05-09T01:03:01.797Z,12.32
2024-05-09T01:05:32.370Z,12.37
2024-05-09T01:08:03.115Z,12.39
2024-05-09T01:10:35.412Z,12.39
2024-05-09T01:13:09.484Z,12.39
2024-05-09T01:15:39.543Z,12.37
2024-05-09T01:18:13.161Z,12.37
2024-05-09T01:20:45.435Z,12.35
2024-05-09T01:23:18.956Z,12.36
2024-05-09T01:25:49.271Z,12.34
2024-05-09T01:28:19.305Z,12.12
2024-05-09T01:30:49.269Z,12.22
2024-05-09T01:33:20.032Z,12.27
2024-05-09T01:35:50.283Z,12.27
2024-05-09T01:38:23.219Z,12.28
2024-05-09T01:40:53.388Z,12.23
2024-05-09T01:43:23.505Z,12.24
2024-05-09T01:45:53.599Z,12.25
2024-05-09T01:48:24.710Z,12.27
2024-05-09T01:50:55.104Z,12.27
2024-05-09T01:53:27.851Z,12.27
2024-05-09T01:55:57.905Z,12.30
2024-05-09T01:58:30.694Z,12.28
2024-05-09T02:01:00.761Z,12.26
2024-05-09T02:03:30.961Z,12.25
2024-05-09T02:06:01.508Z,12.23
2024-05-09T02:08:34.619Z,12.25
2024-05-09T02:11:04.936Z,12.26
2024-05-09T02:13:35.540Z,12.27
2024-05-09T02:16:06.291Z,12.27
2024-05-09T02:18:36.738Z,12.24
2024-05-09T02:21:06.980Z,12.25
2024-05-09T02:23:39.619Z,12.25
2024-05-09T02:26:10.292Z,12.24
2024-05-09T02:28:43.082Z,12.22
2024-05-09T02:31:14.732Z,12.22
2024-05-09T02:33:44.952Z,12.22
2024-05-09T02:36:15.502Z,12.19
2024-05-09T02:38:45.576Z,12.21
2024-05-09T02:41:15.867Z,12.20
2024-05-09T02:43:43.435Z,12.17
2024-05-09T02:46:16.849Z,12.16
2024-05-09T02:48:44.686Z,12.14
2024-05-09T02:51:15.044Z,12.15
2024-05-09T02:53:45.448Z,12.15
2024-05-09T02:56:15.617Z,12.13
2024-05-09T02:58:43.262Z,12.13
2024-05-09T03:01:13.926Z,12.10
2024-05-09T03:03:43.707Z,12.10
2024-05-09T03:06:16.473Z,12.12
2024-05-09T03:08:47.940Z,12.12
2024-05-09T03:11:24.454Z,12.12
2024-05-09T03:13:52.433Z,12.13
2024-05-09T03:16:22.704Z,12.12
2024-05-09T03:18:50.618Z,12.10
2024-05-09T03:21:20.670Z,12.09
2024-05-09T03:23:50.909Z,12.07
2024-05-09T03:26:21.338Z,12.09
2024-05-09T03:28:50.045Z,12.08
2024-05-09T03:31:21.452Z,12.09
2024-05-09T03:33:49.450Z,12.09
2024-05-09T03:36:19.643Z,12.08
2024-05-09T03:38:51.015Z,12.08
2024-05-09T03:41:24.826Z,12.05
2024-05-09T03:43:54.892Z,12.06
2024-05-09T03:46:22.314Z,12.05
2024-05-09T03:48:53.450Z,12.02
2024-05-09T03:51:21.000Z,12.04
2024-05-09T03:53:51.698Z,12.04
2024-05-09T03:56:22.254Z,12.01
2024-05-09T03:58:52.390Z,12.01
2024-05-09T04:01:19.934Z,12.04
2024-05-09T04:03:49.935Z,12.02
2024-05-09T04:06:23.436Z,12.01
2024-05-09T04:08:53.554Z,12.00
2024-05-09T04:11:23.931Z,12.00
2024-05-09T04:13:54.191Z,12.00
2024-05-09T04:16:21.700Z,11.92
2024-05-09T04:18:52.545Z,11.94
2024-05-09T04:21:20.297Z,11.96
2024-05-09T04:23:51.316Z,11.97
2024-05-09T04:26:18.903Z,12.00
2024-05-09T04:28:51.619Z,11.97
2024-05-09T04:31:18.999Z,11.97
2024-05-09T04:33:49.419Z,11.98
2024-05-09T04:36:18.716Z,12.01
2024-05-09T04:38:48.782Z,11.98
2024-05-09T04:41:17.352Z,12.01
2024-05-09T04:43:47.453Z,12.01
2024-05-09T04:46:18.125Z,12.03
2024-05-09T04:48:49.047Z,12.02
2024-05-09T04:51:16.631Z,12.02
2024-05-09T04:53:46.757Z,12.02
2024-05-09T04:56:14.229Z,12.00
2024-05-09T04:58:44.316Z,12.02
2024-05-09T05:01:11.886Z,12.04
2024-05-09T05:03:45.063Z,12.06
2024-05-09T05:06:12.793Z,12.01
2024-05-09T05:08:42.840Z,12.03
2024-05-09T05:11:11.948Z,12.05
2024-05-09T05:13:42.331Z,12.04
2024-05-09T05:16:10.632Z,12.03
2024-05-09T05:18:40.952Z,12.04
2024-05-09T05:21:11.555Z,12.01
2024-05-09T05:23:43.649Z,12.10
2024-05-09T05:26:11.168Z,11.99
2024-05-09T05:28:41.409Z,12.10
2024-05-09T05:31:09.026Z,12.16
2024-05-09T05:33:39.278Z,12.18
2024-05-09T05:36:07.375Z,12.17
2024-05-09T05:38:44.352Z,12.21
2024-05-09T05:41:12.373Z,12.27
2024-05-09T05:43:44.105Z,12.33
2024-05-09T05:46:13.154Z,12.33
2024-05-09T05:48:43.434Z,12.28
2024-05-09T05:51:11.986Z,12.33
2024-05-09T05:53:44.895Z,12.40
2024-05-09T05:56:12.531Z,12.36
2024-05-09T05:58:43.320Z,12.43
2024-05-09T06:01:10.925Z,12.47
2024-05-09T06:03:41.087Z,12.49
2024-05-09T06:06:08.850Z,12.56
2024-05-09T06:08:39.417Z,12.59
2024-05-09T06:11:09.641Z,12.59
2024-05-09T06:13:45.467Z,12.66
2024-05-09T06:16:12.962Z,12.68
2024-05-09T06:18:43.218Z,12.78
2024-05-09T06:21:10.759Z,12.78
2024-05-09T06:23:48.443Z,12.83
2024-05-09T06:26:18.977Z,12.84
2024-05-09T06:28:49.273Z,12.86
2024-05-09T06:31:17.213Z,12.74
2024-05-09T06:33:48.870Z,12.71
2024-05-09T06:36:16.580Z,12.77
2024-05-09T06:38:47.683Z,12.76
2024-05-09T06:41:18.176Z,12.83
2024-05-09T06:43:48.353Z,12.89
2024-05-09T06:46:15.932Z,12.97
2024-05-09T06:48:48.371Z,13.04
2024-05-09T06:51:16.162Z,13.00
2024-05-09T06:53:46.536Z,13.09
2024-05-09T06:56:14.647Z,13.11
2024-05-09T06:58:47.685Z,13.17
2024-05-09T07:01:15.649Z,13.22
2024-05-09T07:03:46.003Z,13.22
2024-05-09T07:06:13.542Z,13.27
2024-05-09T07:08:44.010Z,13.34
2024-05-09T07:11:12.111Z,13.38
2024-05-09T07:13:42.352Z,13.38
2024-05-09T07:16:12.717Z,13.39
2024-05-09T07:18:42.978Z,13.49
2024-05-09T07:21:11.104Z,13.58
2024-05-09T07:23:43.590Z,13.56
2024-05-09T07:26:13.826Z,13.63
2024-05-09T07:28:43.993Z,13.66
2024-05-09T07:31:17.383Z,13.61
2024-05-09T07:33:47.729Z,13.63
2024-05-09T07:36:15.439Z,13.71
2024-05-09T07:38:45.887Z,13.80
2024-05-09T07:41:14.835Z,13.80
2024-05-09T07:43:46.705Z,13.84
2024-05-09T07:47:14.353Z,13.94
2024-05-09T07:54:13.565Z,14.01
2024-05-09T07:56:41.623Z,14.07
2024-05-09T07:59:11.764Z,14.11
2024-05-09T08:01:42.102Z,14.11
2024-05-09T08:04:15.206Z,14.18
2024-05-09T08:06:42.885Z,14.28
2024-05-09T08:09:16.932Z,14.41
2024-05-09T08:11:48.212Z,14.52
2024-05-09T08:14:23.483Z,14.57
2024-05-09T08:16:54.675Z,14.72
2024-05-09T08:19:26.286Z,14.85
2024-05-09T08:21:54.118Z,15.03
2024-05-09T08:24:24.156Z,15.04
2024-05-09T08:26:51.715Z,15.18
2024-05-09T08:29:21.937Z,15.30
2024-05-09T08:31:49.834Z,15.42
2024-05-09T08:34:22.476Z,15.45
2024-05-09T08:36:50.287Z,15.55
2024-05-09T08:39:21.398Z,15.46
2024-05-09T08:41:50.109Z,15.47
2024-05-09T08:44:35.281Z,15.54
2024-05-09T08:47:08.654Z,15.69
2024-05-09T08:49:41.377Z,15.77
2024-05-09T08:52:13.441Z,15.73
2024-05-09T08:54:41.139Z,15.69
2024-05-09T08:57:13.390Z,15.69
2024-05-09T08:59:50.996Z,15.72
2024-05-09T09:02:21.928Z,15.79
2024-05-09T09:04:56.913Z,15.80
2024-05-09T09:07:28.027Z,15.86
2024-05-09T09:09:56.149Z,15.90
2024-05-09T09:12:27.404Z,15.91
2024-05-09T09:14:54.879Z,15.95
2024-05-09T09:17:27.890Z,15.81
2024-05-09T09:19:59.819Z,15.94
2024-05-09T09:22:30.019Z,15.93
2024-05-09T09:24:57.465Z,16.03
2024-05-09T09:27:27.833Z,15.93
2024-05-09T09:29:57.259Z,15.88
2024-05-09T09:32:31.594Z,16.03
2024-05-09T09:35:01.856Z,16.09
2024-05-09T09:37:33.179Z,16.17
2024-05-09T09:40:03.156Z,16.11
2024-05-09T09:42:34.524Z,16.18
2024-05-09T09:45:05.380Z,16.24
2024-05-09T09:47:39.928Z,16.31
2024-05-09T09:50:14.644Z,16.27
2024-05-09T09:52:47.953Z,16.24
2024-05-09T09:55:15.638Z,16.27
2024-05-09T09:57:47.060Z,16.26
2024-05-09T10:00:24.033Z,16.33
2024-05-09T10:02:57.941Z,16.27
2024-05-09T10:05:28.674Z,16.29
2024-05-09T10:07:59.526Z,16.40
2024-05-09T10:10:32.436Z,16.41
2024-05-09T10:13:03.586Z,16.40
2024-05-09T10:15:31.851Z,16.45
2024-05-09T10:18:08.646Z,16.52
2024-05-09T10:20:43.894Z,16.44
2024-05-09T10:23:27.509Z,16.53
2024-05-09T10:25:58.744Z,16.55
2024-05-09T10:28:29.820Z,16.64
2024-05-09T10:31:02.467Z,16.75
2024-05-09T10:33:40.518Z,16.75
2024-05-09T10:36:14.587Z,16.87
2024-05-09T10:38:45.752Z,16.99
2024-05-09T10:41:13.633Z,17.09
2024-05-09T10:43:44.815Z,17.14
2024-05-09T10:46:12.547Z,17.20
2024-05-09T10:48:45.851Z,16.94
2024-05-09T10:51:17.421Z,17.07
2024-05-09T10:53:48.496Z,17.14
2024-05-09T10:56:18.130Z,17.16
2024-05-09T10:58:48.348Z,17.20
2024-05-09T11:01:16.846Z,17.15
2024-05-09T11:03:50.421Z,17.21
2024-05-09T11:06:21.025Z,17.26
2024-05-09T11:08:51.156Z,17.26
2024-05-09T11:11:19.114Z,17.27
2024-05-09T11:13:49.444Z,17.42
2024-05-09T11:16:20.311Z,17.39
2024-05-09T11:18:58.598Z,17.42
2024-05-09T11:21:29.283Z,17.47
2024-05-09T11:24:00.319Z,17.51
2024-05-09T11:26:29.676Z,17.62
2024-05-09T11:28:59.840Z,17.72
2024-05-09T11:31:27.650Z,17.78
2024-05-09T11:33:57.763Z,17.82
2024-05-09T11:36:25.299Z,17.81
2024-05-09T11:38:57.873Z,17.87
2024-05-09T11:41:27.290Z,18.03
2024-05-09T11:43:58.032Z,18.01
2024-05-09T11:46:28.186Z,17.84
2024-05-09T11:48:58.488Z,17.74
2024-05-09T11:51:29.331Z,17.91
2024-05-09T11:54:01.926Z,17.92
2024-05-09T11:56:29.392Z,18.06
2024-05-09T11:58:59.924Z,18.15
2024-05-09T12:01:28.361Z,18.18
2024-05-09T12:03:58.904Z,18.15
2024-05-09T12:06:27.217Z,18.07
2024-05-09T12:08:57.339Z,18.10
2024-05-09T12:11:27.633Z,17.95
2024-05-09T12:13:58.197Z,18.00
2024-05-09T12:16:26.240Z,17.89
2024-05-09T12:18:57.189Z,17.96
2024-05-09T12:21:28.137Z,18.20
2024-05-09T12:23:58.501Z,18.35
2024-05-09T12:26:28.695Z,18.44
2024-05-09T12:28:58.924Z,18.56
2024-05-09T12:31:26.772Z,18.63
2024-05-09T12:33:57.388Z,18.57
2024-05-09T12:36:24.766Z,18.68
2024-05-09T12:38:54.821Z,18.69
2024-05-09T12:41:22.217Z,18.70
2024-05-09T12:43:54.871Z,18.65
2024-05-09T12:46:23.467Z,18.68
2024-05-09T12:48:54.060Z,18.66
2024-05-09T12:51:21.641Z,18.54
2024-05-09T12:53:51.615Z,18.64
2024-05-09T12:56:19.410Z,18.75
2024-05-09T12:58:49.548Z,18.85
2024-05-09T13:01:21.987Z,18.82
2024-05-09T13:03:52.255Z,18.91
2024-05-09T13:06:19.904Z,19.03
2024-05-09T13:08:49.900Z,18.96
2024-05-09T13:11:17.438Z,18.77
2024-05-09T13:13:49.385Z,18.85
2024-05-09T13:16:19.805Z,18.73
2024-05-09T13:18:50.651Z,18.68
2024-05-09T13:21:18.105Z,18.95
2024-05-09T13:23:47.935Z,19.13
2024-05-09T13:26:15.282Z,19.41
2024-05-09T13:28:45.329Z,19.56
2024-05-09T13:31:12.699Z,19.74
2024-05-09T13:33:45.877Z,19.67
2024-05-09T13:36:14.331Z,19.66
2024-05-09T13:38:44.484Z,19.67
2024-05-09T13:41:11.901Z,19.61
2024-05-09T13:43:42.035Z,19.47
2024-05-09T13:46:09.828Z,19.24
2024-05-09T13:48:40.934Z,19.42
2024-05-09T13:51:12.161Z,19.52
2024-05-09T13:53:42.812Z,19.58
2024-05-09T13:56:10.187Z,19.66
2024-05-09T13:58:40.297Z,19.75
2024-05-09T14:01:08.757Z,19.68
2024-05-09T14:03:40.150Z,19.64
2024-05-09T14:06:13.101Z,19.54
2024-05-09T14:08:45.234Z,19.33
2024-05-09T14:11:12.634Z,19.43
2024-05-09T14:13:42.846Z,19.45
2024-05-09T14:16:10.601Z,19.47
2024-05-09T14:18:41.552Z,19.49
2024-05-09T14:21:14.871Z,19.67
2024-05-09T14:23:42.583Z,19.61
2024-05-09T14:26:14.178Z,19.72
2024-05-09T14:28:44.633Z,19.91
2024-05-09T14:31:14.693Z,20.17
2024-05-09T14:33:42.966Z,20.59
2024-05-09T14:36:16.119Z,20.98
2024-05-09T14:38:44.138Z,21.26
2024-05-09T14:41:14.212Z,21.53
2024-05-09T14:43:45.882Z,21.61
2024-05-09T14:46:16.510Z,21.81
2024-05-09T14:48:44.725Z,22.03
2024-05-09T14:51:17.739Z,21.73
2024-05-09T14:53:45.065Z,22.04
2024-05-09T14:56:15.563Z,22.27
2024-05-09T14:58:43.009Z,22.43
2024-05-09T15:01:13.213Z,22.62
2024-05-09T15:03:43.864Z,22.89
2024-05-09T15:06:14.221Z,22.60
2024-05-09T15:08:44.355Z,22.72
2024-05-09T15:11:14.413Z,22.87
2024-05-09T15:13:42.113Z,23.20
2024-05-09T15:16:12.421Z,23.51
2024-05-09T15:18:43.145Z,23.68
2024-05-09T15:21:14.044Z,23.86
2024-05-09T15:23:44.170Z,23.91
2024-05-09T15:26:14.786Z,23.69
2024-05-09T15:28:42.685Z,23.72
2024-05-09T15:31:15.671Z,23.76
2024-05-09T15:33:47.076Z,23.69
2024-05-09T15:36:17.115Z,23.79
2024-05-09T15:38:47.768Z,23.71
2024-05-09T15:41:17.769Z,23.40
2024-05-09T15:43:45.616Z,23.31
2024-05-09T15:46:16.890Z,23.16
2024-05-09T15:48:45.006Z,23.12
2024-05-09T15:51:15.072Z,23.10
2024-05-09T15:53:42.631Z,23.03
2024-05-09T15:56:15.380Z,22.97
2024-05-09T15:58:43.080Z,22.81
2024-05-09T16:01:15.107Z,22.74
2024-05-09T16:03:42.905Z,22.81
2024-05-09T16:06:13.250Z,22.82
2024-05-09T16:08:43.006Z,23.06
2024-05-09T16:11:17.326Z,23.17
2024-05-09T16:13:44.754Z,23.30
2024-05-09T16:16:15.436Z,23.27
2024-05-09T16:18:42.912Z,23.42
2024-05-09T16:21:13.023Z,23.32
2024-05-09T16:23:40.767Z,23.13
2024-05-09T16:26:10.859Z,23.16
2024-05-09T16:28:40.965Z,23.17
2024-05-09T16:31:11.472Z,23.08
2024-05-09T16:33:40.564Z,22.63
2024-05-09T16:36:11.021Z,22.42
2024-05-09T16:38:40.165Z,22.21
2024-05-09T16:41:10.310Z,22.14
2024-05-09T16:43:40.414Z,22.12
2024-05-09T16:46:10.785Z,22.07
2024-05-09T16:48:41.111Z,21.83
2024-05-09T16:51:12.483Z,21.76
2024-05-09T16:53:41.166Z,21.64
2024-05-09T16:56:11.723Z,21.63
2024-05-09T16:58:42.396Z,21.44
2024-05-09T17:01:15.090Z,21.35
2024-05-09T17:03:42.957Z,21.29
2024-05-09T17:06:16.278Z,21.10
2024-05-09T17:08:44.118Z,20.90
2024-05-09T17:11:18.134Z,20.63
2024-05-09T17:13:51.756Z,20.63
2024-05-09T17:16:22.183Z,20.41
2024-05-09T17:18:51.040Z,20.39
2024-05-09T17:21:21.804Z,20.36
2024-05-09T17:23:53.615Z,20.33
2024-05-09T17:26:24.399Z,20.31
2024-05-09T17:28:55.390Z,20.28
2024-05-09T17:31:25.654Z,20.21
2024-05-09T17:33:53.485Z,20.08
2024-05-09T17:36:26.316Z,20.07
2024-05-09T17:38:54.053Z,20.00
2024-05-09T17:41:24.356Z,19.94
2024-05-09T17:43:54.679Z,19.86
2024-05-09T17:46:25.593Z,19.77
2024-05-09T17:48:53.087Z,19.64
2024-05-09T17:51:23.207Z,19.54
2024-05-09T17:53:50.762Z,19.48
2024-05-09T17:56:21.315Z,19.41
2024-05-09T17:58:49.108Z,19.34
2024-05-09T18:01:26.284Z,19.28
2024-05-09T18:03:53.971Z,19.18
2024-05-09T18:06:24.371Z,19.14
2024-05-09T18:08:55.359Z,19.08
2024-05-09T18:11:25.692Z,19.02
2024-05-09T18:13:54.380Z,18.93
2024-05-09T18:16:27.572Z,18.86
2024-05-09T18:18:55.527Z,18.77
2024-05-09T18:21:26.037Z,18.72
2024-05-09T18:23:55.463Z,18.66
2024-05-09T18:26:28.296Z,18.59
2024-05-09T18:28:55.919Z,18.50
2024-05-09T18:31:28.768Z,18.42
2024-05-09T18:33:56.875Z,18.34
2024-05-09T18:36:27.105Z,18.23
2024-05-09T18:38:54.675Z,18.14
2024-05-09T18:41:24.909Z,18.03
2024-05-09T18:43:53.590Z,17.94
2024-05-09T18:46:24.213Z,17.86
2024-05-09T18:48:55.092Z,17.79
2024-05-09T18:51:25.929Z,17.72
2024-05-09T18:53:55.301Z,17.65
2024-05-09T18:56:26.750Z,17.56
2024-05-09T18:58:55.261Z,17.47
2024-05-09T19:01:26.131Z,17.39
2024-05-09T19:03:56.580Z,17.30
2024-05-09T19:06:26.689Z,17.23
2024-05-09T19:08:54.061Z,17.14
2024-05-09T19:11:24.537Z,17.06
2024-05-09T19:13:52.192Z,16.99
2024-05-09T19:16:22.570Z,16.92
2024-05-09T19:18:51.491Z,16.84
2024-05-09T19:21:24.479Z,16.77
2024-05-09T19:23:52.536Z,16.68
2024-05-09T19:26:22.917Z,16.59
2024-05-09T19:28:50.497Z,16.51
2024-05-09T19:31:21.251Z,16.44
2024-05-09T19:33:51.877Z,16.36
2024-05-09T19:36:22.355Z,16.27
2024-05-09T19:38:52.932Z,16.19
2024-05-09T19:41:20.476Z,16.10
2024-05-09T19:43:50.957Z,16.03
2024-05-09T19:46:18.468Z,15.94
2024-05-09T19:48:48.722Z,15.86
2024-05-09T19:51:16.794Z,15.80
2024-05-09T19:53:51.022Z,15.74
2024-05-09T19:56:18.624Z,15.66
2024-05-09T19:58:48.776Z,15.59
2024-05-09T20:01:18.337Z,15.51
2024-05-09T20:03:48.559Z,15.45
2024-05-09T20:06:16.494Z,15.38
2024-05-09T20:08:49.162Z,15.31
2024-05-09T20:11:16.602Z,15.23
2024-05-09T20:13:46.747Z,15.17
2024-05-09T20:16:14.226Z,15.10
2024-05-09T20:18:44.389Z,15.04
2024-05-09T20:21:12.134Z,14.97
2024-05-09T20:23:42.761Z,14.91
2024-05-09T20:26:13.231Z,14.86
2024-05-09T20:28:45.021Z,14.81
2024-05-09T20:31:20.696Z,14.74
2024-05-09T20:33:53.960Z,14.68
2024-05-09T20:36:21.428Z,14.63
2024-05-09T20:38:51.350Z,14.60
2024-05-09T20:41:21.284Z,14.55
2024-05-09T20:43:51.377Z,14.50
2024-05-09T20:46:19.205Z,14.44
2024-05-09T20:48:49.625Z,14.40
2024-05-09T20:51:17.307Z,14.33
2024-05-09T20:53:47.498Z,14.27
2024-05-09T20:56:15.060Z,14.16
2024-05-09T20:58:47.800Z,14.08
2024-05-09T21:01:15.530Z,13.98
2024-05-09T21:03:46.296Z,13.81
2024-05-09T21:06:13.941Z,13.82
2024-05-09T21:08:44.473Z,13.80
2024-05-09T21:11:12.064Z,13.79
2024-05-09T21:13:42.604Z,13.78
2024-05-09T21:16:13.044Z,13.75
2024-05-09T21:18:43.353Z,13.71
2024-05-09T21:21:14.248Z,13.67
2024-05-09T21:23:44.476Z,13.64
2024-05-09T21:26:12.031Z,13.59
2024-05-09T21:28:42.651Z,13.56
2024-05-09T21:31:12.799Z,13.52
2024-05-09T21:33:43.288Z,13.47
2024-05-09T21:36:11.033Z,13.42
2024-05-09T21:38:44.738Z,13.36
2024-05-09T21:41:12.201Z,13.31
2024-05-09T21:43:43.082Z,13.25
2024-05-09T21:46:13.265Z,13.20
2024-05-09T21:48:46.007Z,13.16
2024-05-09T21:51:14.140Z,13.09
2024-05-09T21:53:45.390Z,13.07
2024-05-09T21:56:13.192Z,13.03
2024-05-09T21:58:43.250Z,13.01
2024-05-09T22:01:13.905Z,12.96
2024-05-09T22:03:44.314Z,12.92
2024-05-09T22:06:11.702Z,12.86
2024-05-09T22:08:41.735Z,12.82
2024-05-09T22:11:09.168Z,12.78
2024-05-09T22:13:39.593Z,12.74
2024-05-09T22:16:08.447Z,12.71
2024-05-09T22:18:41.318Z,12.68
2024-05-09T22:21:10.117Z,12.65
2024-05-09T22:23:40.128Z,12.63
2024-05-09T22:26:07.928Z,12.61
2024-05-09T22:28:38.339Z,12.55
2024-05-09T22:31:07.296Z,12.42
2024-05-09T22:33:38.289Z,12.38
2024-05-09T22:36:10.062Z,12.36
2024-05-09T22:38:40.394Z,12.35
2024-05-09T22:41:08.219Z,12.32
2024-05-09T22:43:38.306Z,12.28
2024-05-09T22:46:05.777Z,12.20
2024-05-09T22:48:36.209Z,12.16
2024-05-09T22:51:04.596Z,12.10
2024-05-09T22:53:37.269Z,12.08
2024-05-09T22:56:05.174Z,12.02
2024-05-09T22:58:35.455Z,12.02
2024-05-09T23:01:03.326Z,11.98
2024-05-09T23:03:34.399Z,11.96
2024-05-09T23:06:06.627Z,11.92
2024-05-09T23:08:39.631Z,11.91
2024-05-09T23:11:07.154Z,11.87
2024-05-09T23:13:38.350Z,11.84
2024-05-09T23:16:06.344Z,11.80
2024-05-09T23:18:36.579Z,11.75
2024-05-09T23:21:04.374Z,11.72
2024-05-09T23:23:34.444Z,11.70
2024-05-09T23:26:05.406Z,11.67
2024-05-09T23:28:35.714Z,11.65
2024-05-09T23:31:03.832Z,11.62
2024-05-09T23:33:34.358Z,11.55
2024-05-09T23:36:01.779Z,11.52
2024-05-09T23:38:31.744Z,11.46
2024-05-09T23:40:59.075Z,11.28
2024-05-09T23:43:33.487Z,10.96
2024-05-09T23:46:01.411Z,10.95
2024-05-09T23:48:32.496Z,11.03
2024-05-09T23:50:59.914Z,11.13
2024-05-09T23:53:30.148Z,11.12
2024-05-09T23:55:57.644Z,11.10
2024-05-09T23:58:29.289Z,11.01
